Portada
METAR-TAF:

METAR-TAF

Aeropuertos :

Oslo, Noruega

Aeropuerto de Oslo-Gardermoen

latitud: 60-12N, longitud: 011-05E, altitud: 208 m

Observación

El informe se hizo hace 24 minutos, a las 01:50 UTC
Viento 10 kt del norte, variando entre noroeste y norte-noreste
Temperatura 0°C
Humedad 59%
Presión 1004 hPa
Visibilidad 10 km o más
sin nubes por debajo de 1500 m y sin presencia de cumulonimbus.

METAR: ENGM 260150Z 36010KT 320V020 CAVOK 00/M07 Q1004

Hora: 04:14 (02:14 UTC)

Pronóstico

Pronóstico válido del 26 a las 00 UTC al 26 a las 24 UTC
Viento 7 kt del norte
Visibilidad 10 km o más
Escasas nubes a una altura de 4000 ft
Probabilidad 40% :
Temporalmente
del 26 a las 12 UTC al 26 a las 18 UTC
Nubes dispersas a una altura de 3000 ft
Escasas nubes a una altura de 4000 ft, Cumulonimbus.
chaparrones de nieve, Granizo pequeño o nieve granulada

TAF: ENGM 2600/2624 36007KT 9999 FEW040 PROB40 TEMPO 2612/2618 SHSNGS SCT030 FEW040CB

Observaciones y pronósticos meteorológicos de más de 4000 aeropuertos (mensajes METAR y TAF).

Los puntos amarillos y rojos representan las estaciones disponibles.

Ponga el ratón en el punto deseado para ver el nombre de la estación.

Haga clic para ver las observaciones y los pronósticos meteorológicos.

Para cambiar el mapa : haga clic en los botones verdes con una cruz de color negro para hacer un zoom, en el botón verde con un guión para alejar o en las flechas verdes para mapas adyacentes.


METAR-TAF: